Time;durP1;ratioP1;P1;durP2;ratioP2;P2;SDS_P1;SDS_P2;PMS_P1;PMS_P2;Temp;Humidity;BMP_temperature;BMP_pressure;BME280_temperature;BME280_humidity;BME280_pressure;Samples;Min_cycle;Max_cycle;Signal;HPM_P1;HPM_P2
2023/11/22 00:01:16;;;;;;;12.90;6.60;;;;;;;-2.24;86.75;100372.46;220152;1256;140841;-66
2023/11/22 00:06:21;;;;;;;11.30;6.60;;;;;;;-2.30;86.59;100384.49;220093;1255;140598;-66
2023/11/22 00:11:24;;;;;;;12.30;7.30;;;;;;;-2.36;86.62;100391.30;218229;1256;141115;-66
2023/11/22 00:16:28;;;;;;;11.30;5.90;;;;;;;-2.40;86.70;100397.02;220071;1256;141237;-66
2023/11/22 00:21:30;;;;;;;7.00;5.10;;;;;;;-2.42;86.69;100410.45;219173;1255;141332;-66
2023/11/22 00:26:34;;;;;;;7.60;5.70;;;;;;;-2.43;86.71;100421.84;220591;1254;140186;-65
2023/11/22 00:31:37;;;;;;;13.80;6.10;;;;;;;-2.43;86.68;100428.61;217631;1259;140730;-66
2023/11/22 00:36:40;;;;;;;10.30;7.80;;;;;;;-2.44;86.53;100430.13;220489;1257;140748;-66
2023/11/22 00:41:46;;;;;;;11.50;6.80;;;;;;;-2.42;86.69;100427.45;220414;1256;141150;-66
2023/11/22 00:46:48;;;;;;;9.80;5.50;;;;;;;-2.37;86.73;100439.23;219312;1256;140906;-65
2023/11/22 00:51:50;;;;;;;11.90;6.40;;;;;;;-2.33;86.63;100438.25;220189;1256;141883;-66
2023/11/22 00:56:53;;;;;;;7.40;4.20;;;;;;;-2.28;86.66;100440.79;220142;1256;140655;-65
2023/11/22 01:01:55;;;;;;;8.70;5.50;;;;;;;-2.28;86.42;100444.98;220088;1256;140914;-65
2023/11/22 01:06:57;;;;;;;8.20;5.80;;;;;;;-2.25;86.64;100450.03;217887;1256;140544;-66
2023/11/22 01:12:00;;;;;;;9.30;5.40;;;;;;;-2.24;86.48;100456.11;220235;1256;140986;-66
2023/11/22 01:17:03;;;;;;;9.20;5.60;;;;;;;-2.25;86.42;100447.09;220011;1256;445433;-66
2023/11/22 01:22:06;;;;;;;13.40;6.70;;;;;;;-2.26;86.35;100441.59;220422;1255;140875;-66
2023/11/22 01:27:09;;;;;;;8.80;5.20;;;;;;;-2.25;86.37;100439.07;220408;1255;140669;-66
2023/11/22 01:32:12;;;;;;;8.50;5.90;;;;;;;-2.25;86.26;100436.33;220633;1256;142617;-66
2023/11/22 01:37:19;;;;;;;9.00;5.40;;;;;;;-2.27;86.04;100439.65;220356;1256;140433;-66
2023/11/22 01:42:23;;;;;;;6.00;4.70;;;;;;;-2.26;86.17;100460.28;220367;1256;142201;-67
2023/11/22 01:47:27;;;;;;;6.80;4.70;;;;;;;-2.27;85.88;100464.16;220124;1256;141227;-66
2023/11/22 01:52:31;;;;;;;6.10;4.40;;;;;;;-2.28;85.76;100478.34;220213;1256;140655;-66
2023/11/22 01:57:34;;;;;;;8.10;4.30;;;;;;;-2.30;85.70;100485.34;220053;1256;141032;-66
2023/11/22 02:02:42;;;;;;;7.90;4.20;;;;;;;-2.30;85.67;100483.23;220295;1256;141480;-66
2023/11/22 02:07:45;;;;;;;10.90;5.70;;;;;;;-2.32;85.37;100492.50;220176;1256;140279;-65
2023/11/22 02:12:48;;;;;;;8.10;4.70;;;;;;;-2.36;85.32;100490.00;220248;1256;140945;-66
2023/11/22 02:17:51;;;;;;;10.40;5.90;;;;;;;-2.37;85.30;100494.74;220018;1255;142009;-65
2023/11/22 02:23:09;;;;;;;8.70;5.10;;;;;;;-2.37;85.41;100499.61;220077;1256;142861;-66
2023/11/22 02:28:12;;;;;;;7.20;4.60;;;;;;;-2.37;85.26;100506.27;218994;1255;140474;-65
2023/11/22 02:33:15;;;;;;;8.00;4.10;;;;;;;-2.35;85.36;100516.08;218809;1256;140605;-65
2023/11/22 02:38:20;;;;;;;8.60;5.50;;;;;;;-2.34;85.48;100518.72;220249;1259;140934;-65
2023/11/22 02:43:24;;;;;;;6.90;4.80;;;;;;;-2.36;85.17;100527.08;220094;1256;140470;-66
2023/11/22 02:48:27;;;;;;;7.10;5.70;;;;;;;-2.35;85.18;100532.63;219989;1257;141289;-66
2023/11/22 02:53:30;;;;;;;11.60;4.40;;;;;;;-2.33;85.14;100541.65;220481;1256;141909;-65
2023/11/22 02:58:33;;;;;;;7.10;5.40;;;;;;;-2.30;85.16;100554.66;220317;1256;141485;-66
2023/11/22 03:03:35;;;;;;;7.80;4.80;;;;;;;-2.28;85.30;100559.66;219281;1256;140450;-66
2023/11/22 03:08:37;;;;;;;9.90;6.20;;;;;;;-2.30;85.07;100567.33;220361;1256;140526;-66
2023/11/22 03:13:39;;;;;;;6.90;5.30;;;;;;;-2.34;84.78;100577.95;220265;1256;142374;-66
2023/11/22 03:18:42;;;;;;;8.00;5.20;;;;;;;-2.36;84.80;100579.68;218001;1257;140321;-65
2023/11/22 03:23:46;;;;;;;7.50;4.30;;;;;;;-2.38;84.78;100590.09;220465;1255;140383;-66
2023/11/22 03:28:49;;;;;;;7.50;3.60;;;;;;;-2.38;84.62;100597.04;220484;1256;140863;-66
2023/11/22 03:33:54;;;;;;;8.20;4.10;;;;;;;-2.39;84.42;100599.02;220550;1256;141887;-66
2023/11/22 03:38:57;;;;;;;6.60;3.70;;;;;;;-2.41;84.31;100598.81;220496;1256;140777;-66
2023/11/22 03:44:01;;;;;;;9.30;4.80;;;;;;;-2.40;84.34;100608.83;220248;1257;140609;-65
2023/11/22 03:49:04;;;;;;;8.60;5.70;;;;;;;-2.38;84.45;100620.34;220273;1257;142675;-65
2023/11/22 03:54:07;;;;;;;6.70;4.60;;;;;;;-2.36;84.44;100626.98;220462;1256;143623;-66
2023/11/22 03:59:10;;;;;;;10.40;5.20;;;;;;;-2.35;84.23;100636.52;220113;1256;140915;-66
2023/11/22 04:04:13;;;;;;;7.90;5.20;;;;;;;-2.37;84.05;100650.89;220065;1256;141345;-66
2023/11/22 04:09:20;;;;;;;6.40;4.20;;;;;;;-2.37;84.05;100665.39;220260;1256;140174;-66
2023/11/22 04:14:23;;;;;;;8.70;5.10;;;;;;;-2.41;83.66;100671.77;220201;1256;140465;-66
2023/11/22 04:19:27;;;;;;;7.30;4.20;;;;;;;-2.45;83.73;100672.35;218998;1256;141126;-66
2023/11/22 04:24:29;;;;;;;7.00;4.00;;;;;;;-2.47;83.64;100682.11;220361;1256;140668;-66
2023/11/22 04:29:32;;;;;;;8.20;4.80;;;;;;;-2.55;83.24;100689.05;220410;1256;140927;-66
2023/11/22 04:34:35;;;;;;;11.40;5.00;;;;;;;-2.64;83.16;100694.64;220301;1259;140403;-66
2023/11/22 04:39:39;;;;;;;8.10;5.30;;;;;;;-2.78;82.75;100691.43;219559;1258;140794;-66
2023/11/22 04:44:42;;;;;;;7.10;3.90;;;;;;;-2.92;82.61;100698.55;220524;1256;140325;-66
2023/11/22 04:49:44;;;;;;;6.00;4.80;;;;;;;-3.04;82.52;100694.61;220468;1256;142053;-66
2023/11/22 04:54:46;;;;;;;5.80;3.50;;;;;;;-3.15;82.40;100695.52;220364;1257;140630;-65
2023/11/22 04:59:53;;;;;;;8.10;4.50;;;;;;;-3.24;82.66;100709.06;220391;1256;140708;-65
2023/11/22 05:04:57;;;;;;;8.70;4.90;;;;;;;-3.31;82.52;100714.02;219691;1254;141271;-65
2023/11/22 05:09:59;;;;;;;6.50;3.70;;;;;;;-3.40;82.30;100727.75;219983;1256;141960;-67
2023/11/22 05:15:03;;;;;;;5.20;4.10;;;;;;;-3.51;82.26;100739.52;220456;1257;140836;-65
2023/11/22 05:20:09;;;;;;;8.10;4.50;;;;;;;-3.56;82.18;100736.14;220551;1259;142415;-66
2023/11/22 05:25:11;;;;;;;5.90;3.90;;;;;;;-3.57;82.05;100743.55;220194;1257;141727;-66
2023/11/22 05:30:15;;;;;;;6.10;3.20;;;;;;;-3.61;82.04;100757.74;220155;1256;140374;-65
2023/11/22 05:35:19;;;;;;;7.00;4.10;;;;;;;-3.67;81.90;100765.00;220191;1259;142080;-66
2023/11/22 05:40:22;;;;;;;4.80;3.40;;;;;;;-3.72;82.14;100773.67;220078;1256;142746;-66
2023/11/22 05:45:25;;;;;;;6.50;4.20;;;;;;;-3.76;82.00;100787.52;220161;1256;141928;-66
2023/11/22 05:50:27;;;;;;;6.80;3.40;;;;;;;-3.82;81.93;100795.64;220288;1259;140582;-67
2023/11/22 05:55:30;;;;;;;7.40;3.40;;;;;;;-3.87;82.11;100796.58;220075;1257;142359;-65
2023/11/22 06:00:32;;;;;;;6.10;3.90;;;;;;;-3.94;81.95;100806.09;220049;1256;140584;-66
2023/11/22 06:05:35;;;;;;;5.50;3.00;;;;;;;-4.03;81.72;100808.39;220199;1256;141210;-65
2023/11/22 06:10:41;;;;;;;6.50;3.80;;;;;;;-4.12;81.74;100800.91;220208;1259;142295;-65
2023/11/22 06:15:43;;;;;;;6.90;3.60;;;;;;;-4.17;81.55;100805.09;220131;1256;142177;-65
2023/11/22 06:20:49;;;;;;;6.80;4.20;;;;;;;-4.22;81.61;100825.93;218450;1256;142512;-63
2023/11/22 06:25:52;;;;;;;6.00;4.00;;;;;;;-4.26;81.61;100847.60;220288;1256;142717;-67
2023/11/22 06:30:55;;;;;;;7.30;3.90;;;;;;;-4.30;81.55;100846.50;220151;1256;140887;-68
2023/11/22 06:35:57;;;;;;;7.10;4.10;;;;;;;-4.30;81.48;100861.48;220301;1257;140673;-71
2023/11/22 06:41:00;;;;;;;7.30;3.90;;;;;;;-4.26;81.55;100870.46;220467;1256;140761;-73
2023/11/22 06:46:05;;;;;;;4.60;3.40;;;;;;;-4.16;81.50;100881.69;220090;1257;140893;-71
2023/11/22 06:51:09;;;;;;;6.70;3.70;;;;;;;-3.82;81.73;100892.92;220124;1258;140607;-74
2023/11/22 06:56:11;;;;;;;6.50;3.70;;;;;;;-3.46;81.71;100896.61;220271;1260;141634;-74
2023/11/22 07:01:15;;;;;;;4.90;4.00;;;;;;;-3.23;81.29;100903.36;219179;1256;140474;-70
2023/11/22 07:06:22;;;;;;;5.90;4.30;;;;;;;-3.20;80.86;100912.70;217716;1256;141220;-70
2023/11/22 07:11:25;;;;;;;13.30;5.40;;;;;;;-3.25;80.48;100911.17;220319;1256;140306;-71
2023/11/22 07:16:28;;;;;;;13.40;7.40;;;;;;;-3.36;80.31;100905.79;220286;1256;140758;-71
2023/11/22 07:21:32;;;;;;;12.80;6.60;;;;;;;-3.41;80.47;100892.42;218843;1256;140547;-70
2023/11/22 07:26:35;;;;;;;8.20;5.30;;;;;;;-3.41;80.49;100890.31;219793;1260;140918;-71
2023/11/22 07:31:39;;;;;;;8.30;5.10;;;;;;;-3.41;80.40;100898.11;219281;1255;141402;-69
2023/11/22 07:36:43;;;;;;;7.80;5.20;;;;;;;-3.47;80.25;100894.05;220242;1256;141428;-71
2023/11/22 07:41:48;;;;;;;6.30;4.60;;;;;;;-3.49;80.25;100899.80;220063;1256;142672;-70
2023/11/22 07:46:51;;;;;;;10.40;5.60;;;;;;;-3.52;80.14;100924.73;219956;1257;141023;-70
2023/11/22 07:51:54;;;;;;;8.10;4.90;;;;;;;-3.56;79.91;100930.55;220092;1259;142755;-70
2023/11/22 07:56:57;;;;;;;14.10;6.20;;;;;;;-3.58;79.97;100925.88;220148;1256;140554;-72
2023/11/22 08:02:06;;;;;;;5.70;3.90;;;;;;;-3.60;79.92;100940.59;220317;1259;141253;-72
2023/11/22 08:07:14;;;;;;;8.40;5.50;;;;;;;-3.58;79.74;100941.14;220093;1256;140625;-70
2023/11/22 08:12:19;;;;;;;9.70;7.10;;;;;;;-3.50;79.69;100953.06;220012;1256;141280;-69
2023/11/22 08:17:22;;;;;;;19.20;5.70;;;;;;;-3.46;79.66;100957.46;220106;1256;141717;-71
2023/11/22 08:22:28;;;;;;;10.30;6.20;;;;;;;-3.39;79.56;100951.75;220044;1259;142022;-71
2023/11/22 08:27:31;;;;;;;12.40;6.90;;;;;;;-3.32;79.73;100943.85;220142;1256;141804;-70
2023/11/22 08:32:34;;;;;;;7.70;5.00;;;;;;;-3.23;79.66;100960.02;220028;1256;140920;-70
2023/11/22 08:37:41;;;;;;;9.40;5.80;;;;;;;-3.14;79.68;100979.89;218946;1256;140536;-71
2023/11/22 08:42:45;;;;;;;8.20;4.80;;;;;;;-3.09;79.47;100999.81;220204;1256;140515;-71
2023/11/22 08:47:47;;;;;;;7.80;5.00;;;;;;;-3.02;79.34;101006.10;220223;1259;140918;-69
2023/11/22 08:52:54;;;;;;;8.20;5.40;;;;;;;-2.94;79.42;101008.45;217601;1260;142566;-68
2023/11/22 08:57:56;;;;;;;7.80;6.90;;;;;;;-2.87;79.28;101029.62;220277;1256;142268;-69
2023/11/22 09:02:59;;;;;;;8.50;5.60;;;;;;;-2.81;79.32;101021.00;220154;1256;140960;-70
2023/11/22 09:08:02;;;;;;;10.10;6.00;;;;;;;-2.73;78.96;101026.11;220115;1256;140091;-70
2023/11/22 09:13:19;;;;;;;12.40;6.70;;;;;;;-2.64;78.87;101016.56;220155;1256;141463;-71
2023/11/22 09:18:21;;;;;;;12.80;7.80;;;;;;;-2.51;78.69;101003.84;220133;1256;140685;-71
2023/11/22 09:23:27;;;;;;;9.20;5.70;;;;;;;-2.37;78.73;100991.46;220125;1256;141976;-71
2023/11/22 09:28:30;;;;;;;6.90;4.60;;;;;;;-2.27;78.34;100988.77;220256;1256;142095;-72
2023/11/22 09:33:33;;;;;;;8.70;5.50;;;;;;;-2.19;78.13;100972.05;220072;1256;141147;-72
2023/11/22 09:38:37;;;;;;;9.30;5.50;;;;;;;-2.09;77.86;100958.55;220418;1260;142657;-71
2023/11/22 09:43:42;;;;;;;9.40;6.30;;;;;;;-2.00;77.77;100954.91;220157;1256;141067;-70
2023/11/22 09:48:49;;;;;;;12.30;6.60;;;;;;;-1.89;77.64;100951.55;220278;1257;140685;-70
2023/11/22 09:54:00;;;;;;;7.30;5.10;;;;;;;-1.79;77.40;100957.86;220336;1256;140707;-71
2023/11/22 09:59:06;;;;;;;8.10;5.30;;;;;;;-1.65;77.21;100950.09;220359;1258;141674;-70
2023/11/22 10:04:11;;;;;;;11.60;5.30;;;;;;;-1.50;77.14;100950.08;220438;1256;140424;-70
2023/11/22 10:09:15;;;;;;;12.00;4.70;;;;;;;-1.35;76.70;100945.30;220401;1257;142445;-71
2023/11/22 10:14:26;;;;;;;8.40;6.00;;;;;;;-1.27;76.21;100952.64;220123;1256;141200;-75
2023/11/22 10:19:30;;;;;;;16.90;7.50;;;;;;;-1.15;76.07;100965.41;220186;1260;141063;-74
2023/11/22 10:24:34;;;;;;;7.20;5.50;;;;;;;-1.06;75.75;100977.31;220273;1256;140969;-72
2023/11/22 10:29:39;;;;;;;7.20;4.70;;;;;;;-0.93;75.94;100984.34;220010;1256;140653;-72
2023/11/22 10:34:42;;;;;;;7.60;4.30;;;;;;;-0.82;75.02;100985.23;217884;1260;141217;-68
2023/11/22 10:39:51;;;;;;;8.20;4.50;;;;;;;-0.67;75.08;100976.26;220286;1257;141331;-70
2023/11/22 10:45:02;;;;;;;12.70;6.30;;;;;;;-0.53;75.43;100962.98;219357;1257;140624;-69
2023/11/22 10:50:08;;;;;;;6.80;4.70;;;;;;;-0.43;74.49;100953.62;220073;1260;141071;-68
2023/11/22 10:55:15;;;;;;;9.70;5.30;;;;;;;-0.32;74.59;100960.16;220112;1257;140184;-71
2023/11/22 11:00:22;;;;;;;9.00;4.60;;;;;;;-0.28;74.05;100964.66;220272;1257;141028;-71
2023/11/22 11:05:30;;;;;;;8.90;5.10;;;;;;;-0.22;73.85;100976.00;220480;1259;140901;-71
2023/11/22 11:10:34;;;;;;;7.90;5.10;;;;;;;-0.13;73.72;100990.06;217761;1259;142569;-72
2023/11/22 11:15:39;;;;;;;7.40;3.90;;;;;;;-0.01;73.27;101000.01;220165;1256;140642;-71
2023/11/22 11:20:49;;;;;;;6.90;4.90;;;;;;;0.04;73.20;101005.31;220360;1259;140873;-71
2023/11/22 11:25:57;;;;;;;7.10;4.90;;;;;;;0.10;72.94;101011.23;220584;1260;140497;-72
2023/11/22 11:31:00;;;;;;;9.40;4.00;;;;;;;0.22;72.97;101000.59;220341;1258;140999;-72
2023/11/22 11:36:04;;;;;;;11.60;5.00;;;;;;;0.30;72.54;100989.35;220538;1257;140329;-72
2023/11/22 11:41:12;;;;;;;7.30;5.40;;;;;;;0.35;71.83;100986.45;220379;1259;140270;-73
2023/11/22 11:46:16;;;;;;;18.00;3.40;;;;;;;0.41;72.00;100997.69;220481;1257;140342;-77
2023/11/22 11:51:28;;;;;;;5.80;3.80;;;;;;;0.41;71.84;101006.53;220480;1256;139924;-72
2023/11/22 11:56:33;;;;;;;8.50;3.90;;;;;;;0.39;71.54;101001.33;220610;1254;140070;-72
2023/11/22 12:01:36;;;;;;;5.60;3.60;;;;;;;0.36;71.25;100985.30;220536;1259;140023;-71
2023/11/22 12:06:39;;;;;;;5.70;4.70;;;;;;;0.38;71.14;100974.99;220236;1257;140629;-69
2023/11/22 12:11:43;;;;;;;7.40;4.20;;;;;;;0.41;70.84;100981.77;219003;1258;141741;-68
2023/11/22 12:16:50;;;;;;;5.40;4.70;;;;;;;0.43;70.29;100997.61;219946;1260;140432;-69
2023/11/22 12:22:05;;;;;;;7.00;4.20;;;;;;;0.41;70.53;101004.65;217335;1257;139834;-70
2023/11/22 12:27:10;;;;;;;6.20;4.50;;;;;;;0.42;70.25;100984.05;220091;1258;140411;-69
2023/11/22 12:32:17;;;;;;;8.80;4.90;;;;;;;0.44;70.03;100980.73;220576;1257;139864;-68
2023/11/22 12:37:25;;;;;;;7.90;5.40;;;;;;;0.44;69.89;100989.71;220473;1256;141929;-68
2023/11/22 12:42:31;;;;;;;4.90;4.10;;;;;;;0.36;69.58;100990.56;218799;1257;140847;-67
2023/11/22 12:47:37;;;;;;;5.30;3.50;;;;;;;0.40;70.00;100994.23;220084;1258;141017;-67
2023/11/22 12:52:41;;;;;;;6.90;4.50;;;;;;;0.44;69.60;100997.59;219817;1257;140892;-67
2023/11/22 12:57:45;;;;;;;7.40;5.50;;;;;;;0.48;69.35;100997.70;220204;1257;140750;-67
2023/11/22 13:02:49;;;;;;;4.60;3.90;;;;;;;0.48;68.99;100982.84;219334;1257;140559;-71
2023/11/22 13:08:07;;;;;;;7.40;4.40;;;;;;;0.49;68.94;100967.48;220490;1257;140462;-72
2023/11/22 13:13:10;;;;;;;5.50;4.80;;;;;;;0.44;68.71;100975.55;220317;1257;141073;-71
2023/11/22 13:18:16;;;;;;;8.00;5.30;;;;;;;0.50;69.58;100993.34;219764;1257;517343;-72
2023/11/22 13:23:19;;;;;;;7.50;6.10;;;;;;;0.55;69.85;101012.27;220385;1257;140404;-70
2023/11/22 13:28:25;;;;;;;10.10;6.70;;;;;;;0.56;69.93;101021.63;220207;1257;140021;-73
2023/11/22 13:33:28;;;;;;;8.90;5.60;;;;;;;0.47;69.44;101025.98;220131;1256;140463;-74
2023/11/22 13:42:48;;;;;;;11.20;6.90;;;;;;;0.24;69.81;101037.26;215830;1297;658117;-70
2023/11/22 13:48:00;;;;;;;15.70;7.80;;;;;;;0.16;70.05;101017.34;218847;1272;140168;-73
2023/11/22 13:53:06;;;;;;;40.90;23.30;;;;;;;0.18;70.06;101021.95;218477;1266;502117;-73
2023/11/22 13:58:12;;;;;;;17.00;9.00;;;;;;;0.10;70.00;101013.41;218926;1269;139797;-73
2023/11/22 14:03:21;;;;;;;8.70;6.80;;;;;;;0.00;69.86;101001.64;218890;1266;140134;-70
2023/11/22 14:08:27;;;;;;;9.00;5.70;;;;;;;-0.11;70.21;101001.45;218148;1270;139109;-74
2023/11/22 14:13:35;;;;;;;7.60;5.80;;;;;;;-0.25;70.43;100995.37;218986;1267;139647;-76
2023/11/22 14:18:41;;;;;;;12.00;5.20;;;;;;;-0.37;70.60;100981.21;219093;1269;141882;-72
2023/11/22 14:23:46;;;;;;;9.20;6.40;;;;;;;-0.47;70.78;100980.84;217399;1266;140312;-71
2023/11/22 14:28:52;;;;;;;11.30;6.40;;;;;;;-0.64;70.71;100966.95;216222;1267;140901;-69
2023/11/22 14:33:58;;;;;;;13.80;6.90;;;;;;;-0.85;70.90;100951.65;218955;1266;141795;-71
2023/11/22 14:39:07;;;;;;;9.60;6.30;;;;;;;-1.05;71.07;100944.14;218888;1269;140324;-77
2023/11/22 14:44:18;;;;;;;8.60;5.30;;;;;;;-1.24;71.71;100938.92;218812;1267;139702;-73
2023/11/22 14:49:23;;;;;;;11.40;6.30;;;;;;;-1.35;71.97;100950.32;219127;1267;139731;-72
2023/11/22 14:54:29;;;;;;;15.10;8.50;;;;;;;-1.47;72.10;100983.77;218358;1269;139383;-73
2023/11/22 14:59:33;;;;;;;18.80;11.70;;;;;;;-1.57;72.33;100981.48;219204;1272;139586;-75
2023/11/22 15:04:39;;;;;;;28.70;14.80;;;;;;;-1.66;72.57;100983.60;217937;1272;140086;-71
2023/11/22 15:09:44;;;;;;;41.00;20.50;;;;;;;-1.77;72.58;100991.64;219524;1261;140294;-75
2023/11/22 15:14:48;;;;;;;83.50;34.10;;;;;;;-1.87;72.94;100998.71;219783;1261;139845;-71
2023/11/22 15:19:54;;;;;;;91.50;37.60;;;;;;;-1.97;72.86;100984.77;219669;1263;141167;-69
2023/11/22 15:24:59;;;;;;;42.00;18.30;;;;;;;-2.12;72.88;100961.75;217722;1260;140805;-67
2023/11/22 15:30:07;;;;;;;23.40;12.30;;;;;;;-2.29;73.28;100942.94;219656;1261;151489;-69
2023/11/22 15:35:11;;;;;;;21.60;12.10;;;;;;;-2.40;73.71;100945.35;219643;1260;141195;-67
2023/11/22 15:40:17;;;;;;;16.70;10.50;;;;;;;-2.50;74.11;100956.64;219699;1260;140288;-69
2023/11/22 15:45:21;;;;;;;18.80;9.80;;;;;;;-2.56;74.11;100970.14;219779;1260;140252;-69
2023/11/22 15:50:25;;;;;;;16.20;9.10;;;;;;;-2.68;74.00;100949.02;219809;1260;140918;-69
2023/11/22 15:55:29;;;;;;;28.50;12.50;;;;;;;-2.88;73.89;100938.24;219745;1260;140092;-66
2023/11/22 16:00:33;;;;;;;18.00;9.10;;;;;;;-2.99;74.42;100964.11;220262;1257;141285;-68
2023/11/22 16:05:37;;;;;;;28.20;13.00;;;;;;;-3.02;74.74;100975.27;220370;1256;140068;-67
2023/11/22 16:10:41;;;;;;;33.50;16.60;;;;;;;-3.04;75.03;100993.89;220125;1257;140151;-68
2023/11/22 16:15:46;;;;;;;27.60;13.20;;;;;;;-3.12;74.99;101006.98;220114;1256;140166;-67
2023/11/22 16:20:50;;;;;;;29.90;10.60;;;;;;;-3.21;74.68;101006.15;220376;1257;140155;-70
2023/11/22 16:25:54;;;;;;;24.60;11.90;;;;;;;-3.39;74.84;101023.13;220316;1257;140430;-69
2023/11/22 16:30:59;;;;;;;28.00;14.50;;;;;;;-3.49;75.06;101043.68;220435;1257;141914;-69
2023/11/22 16:36:05;;;;;;;21.90;11.90;;;;;;;-3.61;75.25;101045.83;220133;1257;141338;-69
2023/11/22 16:41:10;;;;;;;13.70;9.50;;;;;;;-3.81;75.13;101031.24;220415;1256;141159;-71
2023/11/22 16:46:16;;;;;;;15.60;9.20;;;;;;;-3.93;75.38;101017.23;220207;1257;142587;-70
2023/11/22 16:51:21;;;;;;;80.60;36.20;;;;;;;-4.05;75.61;101019.16;219628;1257;141746;-67
2023/11/22 16:56:25;;;;;;;87.50;37.60;;;;;;;-4.18;75.78;101016.77;219113;1257;161083;-67
2023/11/22 17:01:30;;;;;;;27.00;14.90;;;;;;;-4.26;76.18;101003.98;220185;1257;140883;-67
2023/11/22 17:06:34;;;;;;;29.80;13.50;;;;;;;-4.31;76.44;100995.66;220042;1257;140191;-67
2023/11/22 17:11:40;;;;;;;26.20;11.50;;;;;;;-4.31;76.61;100986.64;220097;1257;141900;-67
2023/11/22 17:16:45;;;;;;;22.20;10.60;;;;;;;-4.37;76.63;100992.41;220233;1257;140067;-67
2023/11/22 17:21:49;;;;;;;18.90;8.90;;;;;;;-4.41;76.84;100992.34;220159;1257;140481;-66
2023/11/22 17:26:53;;;;;;;16.50;9.40;;;;;;;-4.38;77.30;100991.48;219820;1257;140444;-66
2023/11/22 17:31:57;;;;;;;17.00;7.90;;;;;;;-4.35;77.61;101001.13;220126;1256;140195;-67
2023/11/22 17:37:02;;;;;;;17.90;10.60;;;;;;;-4.34;77.77;101013.23;220296;1257;141329;-66
2023/11/22 17:42:08;;;;;;;19.30;10.30;;;;;;;-4.34;77.79;101022.91;220252;1256;140418;-68
2023/11/22 17:47:13;;;;;;;17.30;11.60;;;;;;;-4.36;77.69;101016.29;220224;1257;141277;-70
2023/11/22 17:52:19;;;;;;;12.30;7.90;;;;;;;-4.47;77.58;101003.50;220081;1256;140665;-67
2023/11/22 17:57:28;;;;;;;16.80;9.90;;;;;;;-4.58;77.81;100983.85;220350;1257;139839;-69
2023/11/22 18:02:38;;;;;;;15.60;10.30;;;;;;;-4.67;78.12;100957.96;220299;1256;139800;-69
2023/11/22 18:07:42;;;;;;;28.60;14.70;;;;;;;-4.73;78.33;100941.03;220123;1256;140314;-68
2023/11/22 18:12:51;;;;;;;49.70;21.20;;;;;;;-4.72;78.83;100934.37;218359;1257;140622;-69
2023/11/22 18:17:56;;;;;;;36.20;20.00;;;;;;;-4.67;78.92;100921.20;220156;1258;140653;-67
2023/11/22 18:23:07;;;;;;;33.40;20.40;;;;;;;-4.64;79.15;100911.77;220058;1256;140257;-69
2023/11/22 18:28:12;;;;;;;40.50;20.10;;;;;;;-4.60;79.27;100905.77;220161;1256;140706;-69
2023/11/22 18:33:17;;;;;;;37.40;18.70;;;;;;;-4.64;79.42;100891.63;220062;1256;140086;-69
2023/11/22 18:38:23;;;;;;;37.30;19.30;;;;;;;-4.66;79.52;100898.02;219974;1257;140476;-69
2023/11/22 18:43:28;;;;;;;37.50;17.40;;;;;;;-4.61;80.01;100879.11;218843;1256;140966;-69
2023/11/22 18:48:35;;;;;;;32.20;17.20;;;;;;;-4.57;80.24;100881.71;219347;1257;140819;-69
2023/11/22 18:53:42;;;;;;;31.60;19.50;;;;;;;-4.49;80.51;100886.19;220063;1256;140146;-69
2023/11/22 18:58:46;;;;;;;39.80;20.40;;;;;;;-4.44;80.59;100894.66;219915;1257;141421;-68
2023/11/22 19:03:50;;;;;;;29.20;17.70;;;;;;;-4.37;80.60;100914.84;217071;1257;142254;-68
2023/11/22 19:08:55;;;;;;;29.70;17.70;;;;;;;-4.34;80.52;100930.24;217065;1257;139768;-68
2023/11/22 19:14:03;;;;;;;29.40;17.10;;;;;;;-4.34;80.77;100933.77;218655;1256;140181;-69
2023/11/22 19:19:07;;;;;;;29.10;12.80;;;;;;;-4.37;80.80;100907.23;217298;1257;139830;-70
2023/11/22 19:24:11;;;;;;;35.80;18.10;;;;;;;-4.47;80.60;100884.83;220052;1259;140672;-70
2023/11/22 19:29:18;;;;;;;33.90;18.20;;;;;;;-4.49;80.87;100867.29;220036;1257;140345;-69
2023/11/22 19:34:22;;;;;;;33.50;20.20;;;;;;;-4.50;80.89;100860.80;220185;1256;140313;-69
2023/11/22 19:39:26;;;;;;;49.80;21.90;;;;;;;-4.50;81.04;100857.45;220058;1256;141422;-70
2023/11/22 19:44:32;;;;;;;46.50;22.30;;;;;;;-4.42;81.38;100854.84;219998;1258;142146;-69
2023/11/22 19:49:55;;;;;;;47.50;20.70;;;;;;;-4.33;81.51;100861.84;219966;1257;140490;-69
2023/11/22 19:55:02;;;;;;;36.80;21.10;;;;;;;-4.31;81.32;100834.61;220059;1257;141520;-70
2023/11/22 20:00:08;;;;;;;59.00;26.80;;;;;;;-4.28;81.83;100817.52;220008;1257;140420;-70
2023/11/22 20:05:13;;;;;;;48.60;25.60;;;;;;;-4.23;81.68;100812.68;220107;1257;140431;-69
2023/11/22 20:10:23;;;;;;;42.00;22.00;;;;;;;-4.18;81.74;100793.64;220063;1256;140709;-69
2023/11/22 20:15:28;;;;;;;44.20;22.00;;;;;;;-4.14;81.68;100784.92;220200;1256;140559;-70
2023/11/22 20:20:36;;;;;;;45.40;21.60;;;;;;;-4.10;81.89;100779.77;220161;1257;140945;-70
2023/11/22 20:25:45;;;;;;;45.00;23.50;;;;;;;-4.01;81.88;100785.15;220187;1256;140542;-70
2023/11/22 20:30:52;;;;;;;39.90;21.00;;;;;;;-3.93;81.86;100783.30;219991;1257;140586;-72
2023/11/22 20:35:58;;;;;;;42.20;21.20;;;;;;;-3.88;81.72;100778.55;217739;1257;140272;-69
2023/11/22 20:41:04;;;;;;;40.50;20.60;;;;;;;-3.87;81.70;100767.02;220087;1257;140190;-69
2023/11/22 20:46:08;;;;;;;44.60;23.10;;;;;;;-3.83;81.90;100764.47;219989;1256;140633;-70
2023/11/22 20:51:12;;;;;;;45.20;20.10;;;;;;;-3.77;81.98;100762.27;220147;1258;140260;-69
2023/11/22 20:56:17;;;;;;;45.20;23.00;;;;;;;-3.70;81.89;100755.54;220037;1257;141753;-69
2023/11/22 21:01:21;;;;;;;39.80;21.40;;;;;;;-3.65;81.98;100754.05;220210;1256;141756;-70
2023/11/22 21:06:26;;;;;;;39.00;18.30;;;;;;;-3.60;81.76;100742.34;220110;1256;140391;-70
2023/11/22 21:11:30;;;;;;;40.30;22.20;;;;;;;-3.56;81.66;100745.02;217480;1256;140411;-69
2023/11/22 21:16:43;;;;;;;38.00;20.70;;;;;;;-3.49;81.84;100740.11;218960;1257;140224;-70
2023/11/22 21:21:47;;;;;;;54.80;25.10;;;;;;;-3.43;81.89;100716.49;220117;1257;140348;-70
2023/11/22 21:26:53;;;;;;;41.70;21.20;;;;;;;-3.38;81.79;100701.94;220226;1256;141007;-70
2023/11/22 21:31:58;;;;;;;42.20;22.10;;;;;;;-3.34;81.81;100695.86;219719;1257;140620;-70
2023/11/22 21:37:03;;;;;;;50.10;23.30;;;;;;;-3.32;81.59;100694.08;219501;1256;140131;-69
2023/11/22 21:42:07;;;;;;;40.20;19.90;;;;;;;-3.29;81.52;100689.30;220015;1256;140848;-70
2023/11/22 21:47:13;;;;;;;45.70;21.50;;;;;;;-3.27;81.68;100674.21;220027;1257;141170;-69
2023/11/22 21:52:18;;;;;;;47.60;23.70;;;;;;;-3.25;81.51;100657.35;220061;1256;142526;-70
2023/11/22 21:57:23;;;;;;;35.40;20.50;;;;;;;-3.23;81.61;100675.95;220124;1256;141649;-70
2023/11/22 22:02:27;;;;;;;53.50;23.80;;;;;;;-3.21;81.55;100673.36;220054;1256;140772;-70
2023/11/22 22:07:34;;;;;;;53.10;26.20;;;;;;;-3.16;81.66;100659.77;217434;1257;140712;-68
2023/11/22 22:12:38;;;;;;;54.60;27.90;;;;;;;-3.11;81.70;100644.58;220088;1256;142234;-69
2023/11/22 22:17:44;;;;;;;23.50;13.60;;;;;;;-3.06;81.74;100625.56;220102;1256;140466;-70
2023/11/22 22:22:48;;;;;;;46.40;21.50;;;;;;;-3.05;81.56;100599.20;220129;1257;140339;-70
2023/11/22 22:27:52;;;;;;;51.30;22.50;;;;;;;-3.06;81.36;100599.51;220223;1256;140840;-70
2023/11/22 22:32:56;;;;;;;41.30;22.00;;;;;;;-3.08;81.34;100592.20;220180;1256;141060;-70
2023/11/22 22:38:03;;;;;;;44.80;21.40;;;;;;;-3.07;81.38;100572.29;220104;1256;142075;-70
2023/11/22 22:43:09;;;;;;;42.00;21.20;;;;;;;-3.08;81.29;100548.35;219830;1256;141192;-69
2023/11/22 22:48:14;;;;;;;41.20;22.30;;;;;;;-3.09;81.18;100537.52;220175;1256;141413;-69
2023/11/22 22:53:19;;;;;;;46.90;22.60;;;;;;;-3.11;81.32;100550.52;220339;1256;141551;-70
2023/11/22 22:58:24;;;;;;;32.60;17.60;;;;;;;-3.13;81.25;100546.84;219150;1256;140114;-68